Saint Helens, OR (97051)

8:35 PM PST on December 28, 2014 (GMT -0800)
Arbor Hill, Sykes Rd. | Change Station
CLOSE
Current Station
Personal Weather Station
Location: St. Helens, OR
Elevation: 200 ft
Nearby Weather Stations
Active Advisory: Special Statement

Elev 200 ft 45.85 °N, 122.85 °W | Updated 19 seconds ago

Overcast
Overcast
39.3 °F
Feels Like 39 °F
N
1.0
Wind Variable Wind from SW
Gusts 1.0 mph

Today
High -- | Low -- °F
--% Chance of Precip.
Yesterday
High -- | Low -- °F
Precip. -- in
7:52 AM 4:33 PM
First Quarter, 55% visible
Pressure 30.19 in
Visibility 10.0 miles
Clouds Mostly Cloudy 4300 ft
Mostly Cloudy 8500 ft
Windchill 39 °F
Dew Point 37 °F
Humidity 91%
Rainfall 0.09 in
Snow Depth Not available.
UV 0 out of 12
Pollen .50 out of 12
Air Quality Not available.
Flu Activity Not available.
METAR KSPB 290353Z AUTO VRB03KT 10SM BKN043 BKN085 04/03 A3019 RMK AO2 RAE27 SLP223 P0000 T00440028

More Conditions Fewer Conditions

Pressure 30.19 in
Visibility 10.0 miles
Clouds Mostly Cloudy 4300 ft
Mostly Cloudy 8500 ft
Windchill 39 °F
Dew Point 37 °F
Humidity 91%
Rainfall 0.09 in
Snow Depth Not available.
UV 0 out of 12
Pollen .50 out of 12
Air Quality Not available.
Flu Activity Not available.
METAR KSPB 290353Z AUTO VRB03KT 10SM BKN043 BKN085 04/03 A3019 RMK AO2 RAE27 SLP223 P0000 T00440028

More Conditions Fewer Conditions

10-Day Weather Forecast

Almanac

Astronomy

Dec. 28, 2014 Rise Set
Actual Time
Civil Twilight
Nautical Twilight
Astronomical Twilight
Moon
Length of Visible Light
Length of Day
Tomorrow will be .
, % of the Moon is Illuminated

Today's Extremes

State Highs State Lows

Community

WunderPhotos

Upload Photos

1,781,530 photos uploaded!

WunderBlogs® & News

Nearby

Air Quality

  Air Quality AQ Index Pollutant
Not available.

Snow Depth

Station Depth Elevation

Earthquake Activity

City Distance Mag. Time & Date
Minimum magnitude displayed is 2.5.

Coastal Water Temperatures

Place Temperature

Nearby Weather Stations